Time;durP1;ratioP1;P1;durP2;ratioP2;P2;SDS_P1;SDS_P2;PMS_P1;PMS_P2;Temp;Humidity;BMP_temperature;BMP_pressure;BME280_temperature;BME280_humidity;BME280_pressure;Samples;Min_cycle;Max_cycle;Signal;HPM_P1;HPM_P2
2021/09/12 00:00:39;;;;;;;24.57;20.50;;;18.40;99.90;;;;;;5126325;28;20599;-40
2021/09/12 00:03:06;;;;;;;28.83;22.73;;;18.40;99.90;;;;;;5125809;27;20382;-40
2021/09/12 00:05:32;;;;;;;31.20;24.37;;;18.40;99.90;;;;;;5129917;27;20869;-40
2021/09/12 00:07:58;;;;;;;27.63;22.83;;;18.40;99.90;;;;;;5123825;27;20877;-40
2021/09/12 00:10:24;;;;;;;28.33;22.50;;;18.50;99.90;;;;;;5126520;27;20408;-40
2021/09/12 00:12:50;;;;;;;28.37;23.73;;;18.50;99.90;;;;;;5127272;27;20669;-46
2021/09/12 00:15:16;;;;;;;29.77;24.20;;;18.40;99.90;;;;;;5119287;27;20414;-40
2021/09/12 00:17:41;;;;;;;30.07;23.67;;;18.40;99.90;;;;;;5125091;27;20178;-40
2021/09/12 00:20:09;;;;;;;29.20;23.67;;;18.40;99.90;;;;;;5130169;27;20416;-40
2021/09/12 00:22:34;;;;;;;30.40;25.30;;;18.40;99.90;;;;;;5126449;27;20183;-40
2021/09/12 00:25:01;;;;;;;32.90;25.13;;;18.40;99.90;;;;;;5123184;27;20416;-41
2021/09/12 00:27:26;;;;;;;29.60;23.70;;;18.40;99.90;;;;;;5129801;27;20553;-40
2021/09/12 00:29:52;;;;;;;30.80;23.80;;;18.40;99.90;;;;;;5129808;27;20452;-41
2021/09/12 00:32:17;;;;;;;26.73;21.90;;;18.40;99.90;;;;;;5129358;27;20206;-40
2021/09/12 00:34:43;;;;;;;26.30;23.10;;;18.40;99.90;;;;;;5129801;27;20197;-40
2021/09/12 00:37:09;;;;;;;29.73;23.37;;;18.40;99.90;;;;;;5129755;27;20179;-41
2021/09/12 00:39:34;;;;;;;29.10;23.00;;;18.40;99.90;;;;;;5103702;27;20253;-40
2021/09/12 00:42:00;;;;;;;29.20;22.70;;;18.40;99.90;;;;;;5129669;27;20272;-40
2021/09/12 00:44:26;;;;;;;29.13;21.60;;;18.40;99.90;;;;;;5130059;27;20202;-41
2021/09/12 00:46:53;;;;;;;26.83;21.87;;;18.40;99.90;;;;;;5129422;27;20194;-40
2021/09/12 00:49:19;;;;;;;24.30;19.20;;;18.40;99.90;;;;;;5129407;27;20199;-39
2021/09/12 00:51:46;;;;;;;25.77;20.40;;;18.40;99.90;;;;;;5129304;27;20471;-41
2021/09/12 00:54:12;;;;;;;25.97;20.43;;;18.40;99.90;;;;;;5114866;27;20516;-40
2021/09/12 00:56:42;;;;;;;23.20;19.30;;;18.40;99.90;;;;;;5127370;27;20408;-43
2021/09/12 00:59:14;;;;;;;24.30;19.10;;;18.40;99.90;;;;;;5121279;27;20463;-43
2021/09/12 01:01:41;;;;;;;27.17;20.63;;;18.30;99.90;;;;;;5128551;27;20513;-40
2021/09/12 01:04:08;;;;;;;27.73;19.90;;;18.30;99.90;;;;;;5129447;27;20452;-41
2021/09/12 01:06:34;;;;;;;26.53;19.53;;;18.30;99.90;;;;;;5128892;27;20793;-42
2021/09/12 01:09:00;;;;;;;22.07;18.67;;;18.30;99.90;;;;;;5117733;27;20429;-40
2021/09/12 01:11:26;;;;;;;22.50;18.67;;;18.30;99.90;;;;;;5109550;27;20231;-43
2021/09/12 01:13:51;;;;;;;21.43;19.10;;;18.30;99.90;;;;;;5129426;27;20474;-43
2021/09/12 01:16:19;;;;;;;25.03;20.20;;;18.30;99.90;;;;;;5108937;27;20184;-40
2021/09/12 01:18:46;;;;;;;22.20;17.57;;;18.30;99.90;;;;;;5127614;27;20674;-42
2021/09/12 01:21:15;;;;;;;26.57;19.20;;;18.30;99.90;;;;;;5129309;27;20467;-39
2021/09/12 01:23:41;;;;;;;20.70;17.87;;;18.30;99.90;;;;;;5121123;27;20445;-39
2021/09/12 01:26:08;;;;;;;22.37;19.07;;;18.30;99.90;;;;;;5122609;27;20862;-40
2021/09/12 01:28:34;;;;;;;23.57;17.80;;;18.30;99.90;;;;;;5114638;27;20498;-40
2021/09/12 01:31:00;;;;;;;22.30;18.50;;;18.30;99.90;;;;;;5115296;27;20466;-41
2021/09/12 01:33:26;;;;;;;22.60;17.77;;;18.30;99.90;;;;;;5128253;27;20872;-42
2021/09/12 01:35:52;;;;;;;24.17;19.20;;;18.30;99.90;;;;;;5128803;27;20435;-43
2021/09/12 01:38:18;;;;;;;20.90;17.43;;;18.30;99.90;;;;;;5123102;27;20525;-39
2021/09/12 01:40:45;;;;;;;21.17;17.23;;;18.30;99.90;;;;;;5122593;27;20187;-39
2021/09/12 01:43:10;;;;;;;20.53;17.47;;;18.30;99.90;;;;;;5123704;27;20226;-40
2021/09/12 01:45:36;;;;;;;21.33;17.63;;;18.30;99.90;;;;;;5128184;27;20444;-44
2021/09/12 01:48:02;;;;;;;20.03;16.07;;;18.20;99.90;;;;;;5128117;27;20202;-40
2021/09/12 01:50:28;;;;;;;19.83;17.03;;;18.20;99.90;;;;;;5128587;27;20834;-39
2021/09/12 01:52:54;;;;;;;19.40;16.17;;;18.20;99.90;;;;;;5127028;27;20504;-41
2021/09/12 01:55:20;;;;;;;18.87;15.90;;;18.20;99.90;;;;;;5119214;27;20185;-42
2021/09/12 01:57:46;;;;;;;23.97;17.10;;;18.30;99.90;;;;;;5127666;27;20413;-40
2021/09/12 02:00:12;;;;;;;19.53;16.20;;;18.20;99.90;;;;;;5127933;27;20432;-40
2021/09/12 02:02:38;;;;;;;18.47;14.80;;;18.20;99.90;;;;;;5127898;27;20455;-40
2021/09/12 02:05:05;;;;;;;19.77;15.07;;;18.20;99.90;;;;;;5128115;27;20524;-40
2021/09/12 02:07:31;;;;;;;19.77;15.77;;;18.20;99.90;;;;;;5127929;27;20712;-41
2021/09/12 02:09:56;;;;;;;19.40;15.80;;;18.20;99.90;;;;;;5117817;27;20524;-40
2021/09/12 02:12:22;;;;;;;20.30;15.20;;;18.20;99.90;;;;;;5126922;27;20214;-42
2021/09/12 02:14:48;;;;;;;18.20;14.50;;;18.20;99.90;;;;;;5120151;27;20586;-41
2021/09/12 02:17:14;;;;;;;19.10;15.60;;;18.10;99.90;;;;;;5112280;27;20239;-40
2021/09/12 02:19:39;;;;;;;16.03;13.77;;;18.10;99.90;;;;;;5128391;27;20214;-41
2021/09/12 02:22:07;;;;;;;20.37;16.90;;;18.10;99.90;;;;;;5127311;27;20190;-39
2021/09/12 02:24:33;;;;;;;20.13;15.53;;;18.10;99.90;;;;;;5119280;27;20183;-40
2021/09/12 02:26:59;;;;;;;20.13;16.20;;;18.10;99.90;;;;;;5125594;27;20492;-39
2021/09/12 02:29:24;;;;;;;20.20;15.93;;;18.10;99.90;;;;;;5125632;27;20523;-41
2021/09/12 02:31:50;;;;;;;19.07;14.17;;;18.10;99.90;;;;;;5126836;27;20700;-39
2021/09/12 02:34:17;;;;;;;16.37;12.87;;;18.00;99.90;;;;;;5127776;27;20195;-40
2021/09/12 02:36:42;;;;;;;15.87;13.50;;;18.00;99.90;;;;;;5126979;27;20891;-39
2021/09/12 02:39:08;;;;;;;17.37;15.50;;;18.00;99.90;;;;;;5118638;27;20459;-40
2021/09/12 02:41:34;;;;;;;18.60;13.90;;;17.90;99.90;;;;;;5123275;27;20199;-42
2021/09/12 02:44:00;;;;;;;17.50;15.00;;;17.90;99.90;;;;;;5119835;27;20202;-39
2021/09/12 02:46:25;;;;;;;17.00;13.80;;;17.80;99.90;;;;;;5126863;27;20227;-40
2021/09/12 02:48:51;;;;;;;21.13;16.40;;;17.80;99.90;;;;;;5127296;27;20425;-40
2021/09/12 02:51:16;;;;;;;18.03;14.27;;;17.80;99.90;;;;;;5127107;27;20207;-40
2021/09/12 02:53:42;;;;;;;17.23;15.27;;;17.70;99.90;;;;;;5123050;27;20184;-42
2021/09/12 02:56:08;;;;;;;18.57;15.47;;;17.70;99.90;;;;;;5120467;27;20274;-40
2021/09/12 02:58:33;;;;;;;18.33;15.07;;;17.70;99.90;;;;;;5126640;27;20186;-39
2021/09/12 03:00:59;;;;;;;21.90;15.57;;;17.60;99.90;;;;;;5127373;27;20197;-41
2021/09/12 03:03:25;;;;;;;21.90;16.73;;;17.70;99.90;;;;;;5126536;27;20187;-40
2021/09/12 03:05:51;;;;;;;22.27;16.80;;;17.60;99.90;;;;;;5108280;27;20560;-40
2021/09/12 03:08:17;;;;;;;19.87;16.57;;;17.70;99.90;;;;;;5127385;27;20238;-39
2021/09/12 03:10:43;;;;;;;24.03;17.63;;;17.60;99.90;;;;;;5111745;27;20851;-41
2021/09/12 03:13:09;;;;;;;23.97;17.00;;;17.60;99.90;;;;;;5120470;27;20513;-42
2021/09/12 03:15:34;;;;;;;21.30;16.33;;;17.60;99.90;;;;;;5126660;27;20185;-42
2021/09/12 03:18:00;;;;;;;26.03;18.17;;;17.70;99.90;;;;;;5106944;27;20263;-39
2021/09/12 03:20:26;;;;;;;24.73;18.60;;;17.70;99.90;;;;;;5126649;27;20220;-41
2021/09/12 03:22:52;;;;;;;22.43;17.30;;;17.70;99.90;;;;;;5126502;27;20190;-44
2021/09/12 03:25:17;;;;;;;19.67;16.07;;;17.70;99.90;;;;;;5092754;28;20519;-44
2021/09/12 03:27:43;;;;;;;25.20;17.40;;;17.60;99.90;;;;;;5126255;27;20269;-40
2021/09/12 03:30:09;;;;;;;20.53;15.63;;;17.60;99.90;;;;;;5126512;27;20203;-40
2021/09/12 03:32:35;;;;;;;20.70;16.27;;;17.60;99.90;;;;;;5126248;27;20206;-39
2021/09/12 03:35:01;;;;;;;22.37;18.67;;;17.60;99.90;;;;;;5126709;27;20417;-40
2021/09/12 03:37:27;;;;;;;20.73;16.43;;;17.70;99.90;;;;;;5126387;28;20187;-40
2021/09/12 03:39:52;;;;;;;21.43;15.47;;;17.60;99.90;;;;;;5122767;27;20263;-39
2021/09/12 03:42:18;;;;;;;20.53;16.33;;;17.60;99.90;;;;;;5133065;27;20187;-40
2021/09/12 03:44:43;;;;;;;22.03;15.77;;;17.60;99.90;;;;;;5119184;27;20219;-39
2021/09/12 03:47:09;;;;;;;23.23;17.63;;;17.60;99.90;;;;;;5112746;27;20244;-39
2021/09/12 03:49:35;;;;;;;24.87;16.20;;;17.60;99.90;;;;;;5133346;27;20194;-41
2021/09/12 03:52:00;;;;;;;24.83;16.57;;;17.60;99.90;;;;;;5114497;27;20684;-39
2021/09/12 03:54:26;;;;;;;21.70;15.70;;;17.70;99.90;;;;;;5126497;27;20194;-41
2021/09/12 03:56:52;;;;;;;23.23;16.70;;;17.70;99.90;;;;;;5127372;27;20259;-42
2021/09/12 03:59:17;;;;;;;25.20;17.53;;;17.70;99.90;;;;;;5130842;27;20187;-40
2021/09/12 04:01:43;;;;;;;20.77;16.70;;;17.70;99.90;;;;;;5119699;27;20194;-42
2021/09/12 04:04:08;;;;;;;22.27;17.37;;;17.70;99.90;;;;;;5133237;27;20194;-40
2021/09/12 04:06:34;;;;;;;22.17;17.37;;;17.70;99.90;;;;;;5132780;27;20688;-41
2021/09/12 04:09:00;;;;;;;23.27;17.03;;;17.70;99.90;;;;;;5130280;27;20657;-42
2021/09/12 04:11:25;;;;;;;20.33;16.53;;;17.70;99.90;;;;;;5105846;27;20202;-39
2021/09/12 04:13:51;;;;;;;21.70;16.80;;;17.70;99.90;;;;;;5133004;27;20190;-40
2021/09/12 04:16:17;;;;;;;19.80;15.80;;;17.60;99.90;;;;;;5133089;27;20253;-39
2021/09/12 04:18:42;;;;;;;21.77;16.90;;;17.60;99.90;;;;;;5131656;27;20297;-41
2021/09/12 04:21:08;;;;;;;22.13;16.83;;;17.60;99.90;;;;;;5133276;27;20240;-41
2021/09/12 04:23:34;;;;;;;22.00;16.17;;;17.60;99.90;;;;;;5132667;27;20182;-40
2021/09/12 04:25:59;;;;;;;19.00;15.03;;;17.50;99.90;;;;;;5121126;27;20729;-41
2021/09/12 04:28:25;;;;;;;18.50;14.93;;;17.50;99.90;;;;;;5114304;27;20652;-42
2021/09/12 04:30:51;;;;;;;23.40;15.80;;;17.50;99.90;;;;;;5133158;27;20563;-39
2021/09/12 04:33:16;;;;;;;21.30;16.00;;;17.50;99.90;;;;;;5132743;27;20649;-40
2021/09/12 04:35:42;;;;;;;20.40;14.73;;;17.50;99.90;;;;;;5132317;27;20680;-40
2021/09/12 04:38:09;;;;;;;20.37;15.67;;;17.50;99.90;;;;;;5132935;27;20203;-39
2021/09/12 04:40:34;;;;;;;17.73;14.03;;;17.50;99.90;;;;;;5124276;27;20247;-39
2021/09/12 04:43:00;;;;;;;20.03;13.90;;;17.40;99.90;;;;;;5132503;27;20416;-39
2021/09/12 04:45:26;;;;;;;16.73;13.53;;;17.40;99.90;;;;;;5130360;27;20187;-45
2021/09/12 04:47:51;;;;;;;16.00;13.33;;;17.40;99.90;;;;;;5132823;27;20488;-41
2021/09/12 04:50:17;;;;;;;16.67;13.63;;;17.40;99.90;;;;;;5112976;27;20765;-39
2021/09/12 04:52:43;;;;;;;17.30;13.47;;;17.40;99.90;;;;;;5129195;27;20576;-41
2021/09/12 04:55:09;;;;;;;19.13;14.03;;;17.40;99.90;;;;;;5122338;27;20187;-42
2021/09/12 04:57:35;;;;;;;19.53;13.20;;;17.40;99.90;;;;;;5126928;27;20420;-39
2021/09/12 05:00:02;;;;;;;16.77;12.83;;;17.40;99.90;;;;;;5123335;27;20428;-40
2021/09/12 05:02:27;;;;;;;16.70;12.70;;;17.30;99.90;;;;;;5128777;27;20237;-42
2021/09/12 05:04:53;;;;;;;15.50;12.07;;;17.30;99.90;;;;;;5110955;27;20456;-41
2021/09/12 05:07:19;;;;;;;13.70;11.20;;;17.30;99.90;;;;;;5128730;27;20202;-40
2021/09/12 05:09:44;;;;;;;17.30;12.20;;;17.20;99.90;;;;;;5124013;27;20735;-39
2021/09/12 05:12:10;;;;;;;14.97;11.90;;;17.20;99.90;;;;;;5122844;27;20302;-39
2021/09/12 05:14:36;;;;;;;15.50;11.03;;;17.20;99.90;;;;;;5128809;27;20187;-39
2021/09/12 05:17:01;;;;;;;15.23;11.07;;;17.10;99.90;;;;;;5127871;27;20194;-39
2021/09/12 05:19:27;;;;;;;13.67;10.30;;;17.10;99.90;;;;;;5128941;27;20183;-42
2021/09/12 05:21:53;;;;;;;15.23;10.93;;;17.10;99.90;;;;;;5128744;27;20191;-41
2021/09/12 05:24:18;;;;;;;16.47;10.20;;;17.10;99.90;;;;;;5128745;27;20503;-41
2021/09/12 05:26:44;;;;;;;12.47;9.83;;;17.10;99.90;;;;;;5120377;27;20191;-42
2021/09/12 05:29:10;;;;;;;12.37;10.20;;;17.10;99.90;;;;;;5124088;27;20194;-41
2021/09/12 05:31:35;;;;;;;12.70;10.57;;;17.20;99.90;;;;;;5128483;27;20229;-39
2021/09/12 05:34:01;;;;;;;15.70;10.10;;;17.10;99.90;;;;;;5128607;27;20240;-40
2021/09/12 05:36:27;;;;;;;11.30;8.83;;;17.10;99.90;;;;;;5128426;27;20675;-40
2021/09/12 05:38:52;;;;;;;13.93;10.50;;;17.10;99.90;;;;;;5128788;27;20539;-40
2021/09/12 05:41:18;;;;;;;11.00;9.53;;;17.10;99.90;;;;;;5113674;27;20273;-40
2021/09/12 05:43:44;;;;;;;11.33;9.40;;;17.00;99.90;;;;;;5127155;27;20578;-39
2021/09/12 05:46:09;;;;;;;10.50;8.23;;;17.00;99.90;;;;;;5128247;27;20198;-39
2021/09/12 05:48:35;;;;;;;9.57;8.57;;;17.00;99.90;;;;;;5128492;27;20693;-40
2021/09/12 05:51:02;;;;;;;11.90;8.50;;;17.00;99.90;;;;;;5128217;27;20210;-40
2021/09/12 05:53:28;;;;;;;10.10;8.40;;;17.00;99.90;;;;;;5127729;27;20200;-41
2021/09/12 05:55:53;;;;;;;11.27;8.70;;;17.00;99.90;;;;;;5118425;27;20429;-42
2021/09/12 05:58:19;;;;;;;9.60;8.60;;;17.00;99.90;;;;;;5127372;27;20637;-41
2021/09/12 06:00:45;;;;;;;10.17;7.50;;;17.00;99.90;;;;;;5109772;27;20227;-39
2021/09/12 06:03:10;;;;;;;8.73;7.83;;;16.90;99.90;;;;;;5127180;27;20890;-39
2021/09/12 06:05:36;;;;;;;11.83;7.30;;;16.90;99.90;;;;;;5127548;27;20244;-39
2021/09/12 06:08:02;;;;;;;8.60;7.23;;;17.00;99.90;;;;;;5127545;27;20603;-40
2021/09/12 06:10:28;;;;;;;8.23;6.77;;;16.90;99.90;;;;;;5125809;27;20195;-41
2021/09/12 06:12:53;;;;;;;10.27;7.57;;;17.00;99.90;;;;;;5127355;27;20211;-39
2021/09/12 06:15:19;;;;;;;11.67;6.90;;;17.00;99.90;;;;;;5128205;27;20306;-39
2021/09/12 06:17:45;;;;;;;9.90;7.43;;;17.00;99.90;;;;;;5120918;27;20187;-44
2021/09/12 06:20:11;;;;;;;7.33;6.63;;;17.00;99.90;;;;;;5127637;27;20421;-40
2021/09/12 06:22:45;;;;;;;7.77;6.33;;;17.00;99.90;;;;;;5126892;27;20206;-39
2021/09/12 06:25:12;;;;;;;7.60;6.27;;;17.00;99.90;;;;;;5124270;27;20449;-40
2021/09/12 06:27:38;;;;;;;7.53;6.40;;;17.10;99.90;;;;;;5121202;27;20424;-42
2021/09/12 06:30:07;;;;;;;8.03;6.63;;;17.10;99.90;;;;;;5121757;27;20470;-39
2021/09/12 06:32:32;;;;;;;7.37;5.80;;;17.10;99.90;;;;;;5128908;27;21182;-40
2021/09/12 06:34:58;;;;;;;6.73;5.70;;;17.10;99.90;;;;;;5129015;27;20429;-40
2021/09/12 06:37:24;;;;;;;7.47;6.00;;;17.10;99.90;;;;;;5127331;27;20195;-39
2021/09/12 06:39:49;;;;;;;7.77;5.83;;;17.10;99.90;;;;;;5127371;27;20179;-41
2021/09/12 06:42:15;;;;;;;9.27;6.40;;;17.10;99.90;;;;;;5114062;27;20247;-40
2021/09/12 06:44:41;;;;;;;8.53;6.60;;;17.10;99.90;;;;;;5127171;27;20230;-39
2021/09/12 06:47:06;;;;;;;9.67;5.93;;;17.20;99.90;;;;;;5127286;27;20190;-42
2021/09/12 06:49:32;;;;;;;7.30;6.50;;;17.20;99.90;;;;;;5126819;27;20302;-40
2021/09/12 06:51:58;;;;;;;10.67;6.07;;;17.30;99.90;;;;;;5127028;27;20219;-40
2021/09/12 06:54:23;;;;;;;9.93;6.30;;;17.30;99.90;;;;;;5127308;27;20203;-41
2021/09/12 06:56:49;;;;;;;8.03;5.70;;;17.40;99.90;;;;;;5116373;27;20183;-39
2021/09/12 06:59:14;;;;;;;6.80;5.70;;;17.40;99.90;;;;;;5127046;27;20231;-40
2021/09/12 07:01:40;;;;;;;7.27;5.80;;;17.50;99.90;;;;;;5126860;27;20722;-38
2021/09/12 07:04:06;;;;;;;6.50;5.60;;;17.60;99.90;;;;;;5126788;27;20195;-40
2021/09/12 07:06:31;;;;;;;8.37;6.00;;;17.60;99.90;;;;;;5071145;28;20214;-41
2021/09/12 07:08:57;;;;;;;9.70;5.27;;;17.60;99.90;;;;;;5119567;27;20287;-40
2021/09/12 07:11:23;;;;;;;7.50;5.00;;;17.70;99.90;;;;;;5116748;27;20261;-41
2021/09/12 07:13:48;;;;;;;14.47;7.00;;;17.60;99.90;;;;;;5125792;27;20190;-40
2021/09/12 07:16:14;;;;;;;7.73;5.87;;;17.60;99.90;;;;;;5122215;27;20243;-40
2021/09/12 07:18:40;;;;;;;8.00;6.03;;;17.60;99.90;;;;;;5125242;27;20189;-41
2021/09/12 07:21:06;;;;;;;9.33;6.23;;;17.60;99.90;;;;;;5108451;27;20290;-41
2021/09/12 07:23:31;;;;;;;7.93;5.93;;;17.60;99.90;;;;;;5115998;27;20212;-39
2021/09/12 07:25:57;;;;;;;7.23;5.63;;;17.60;99.90;;;;;;5108304;27;20229;-41
2021/09/12 07:28:23;;;;;;;9.20;6.17;;;17.70;99.90;;;;;;5122995;27;20195;-39
2021/09/12 07:30:48;;;;;;;6.73;5.83;;;17.70;99.90;;;;;;5118468;27;20241;-40
2021/09/12 07:33:14;;;;;;;10.97;6.30;;;17.80;99.90;;;;;;5126215;27;20183;-40
2021/09/12 07:35:40;;;;;;;9.73;6.07;;;17.80;99.90;;;;;;5126383;27;20274;-39
2021/09/12 07:38:05;;;;;;;9.37;5.87;;;17.80;99.90;;;;;;5108271;28;20183;-41
2021/09/12 07:40:31;;;;;;;11.20;4.93;;;17.80;99.90;;;;;;5125235;28;20187;-41
2021/09/12 07:42:57;;;;;;;6.63;4.93;;;17.80;99.90;;;;;;5118523;28;20193;-41
2021/09/12 07:45:23;;;;;;;7.97;5.50;;;17.90;99.90;;;;;;5121793;28;20286;-39
2021/09/12 07:47:48;;;;;;;7.43;5.20;;;17.90;99.90;;;;;;5124917;28;20191;-41
2021/09/12 07:50:14;;;;;;;8.70;5.10;;;17.90;99.90;;;;;;5125789;28;20549;-41
2021/09/12 07:52:43;;;;;;;5.87;4.47;;;17.90;99.90;;;;;;5125555;28;20583;-39
2021/09/12 07:55:10;;;;;;;7.53;5.00;;;17.90;99.90;;;;;;5125985;28;20199;-42
2021/09/12 07:57:36;;;;;;;6.80;5.27;;;17.90;99.90;;;;;;5112225;28;20826;-39
2021/09/12 08:00:04;;;;;;;6.87;5.40;;;18.00;99.90;;;;;;5106786;28;20485;-39
2021/09/12 08:02:30;;;;;;;6.73;5.20;;;18.00;99.90;;;;;;5124841;28;20209;-39
2021/09/12 08:04:56;;;;;;;7.37;5.33;;;18.00;99.90;;;;;;5126195;28;21367;-39
2021/09/12 08:07:21;;;;;;;6.83;5.63;;;18.00;99.90;;;;;;5124959;28;20210;-41
2021/09/12 08:09:47;;;;;;;9.43;5.70;;;18.10;99.90;;;;;;5117935;28;20195;-42
2021/09/12 08:12:13;;;;;;;8.97;5.63;;;18.10;99.90;;;;;;5106398;28;20512;-42
2021/09/12 08:14:38;;;;;;;11.70;5.70;;;18.20;99.90;;;;;;5125399;28;20183;-40
2021/09/12 08:17:04;;;;;;;10.10;5.73;;;18.30;99.90;;;;;;5123856;28;20211;-40
2021/09/12 08:19:30;;;;;;;7.63;4.33;;;18.30;99.90;;;;;;5125315;28;20202;-39
2021/09/12 08:21:55;;;;;;;6.43;4.47;;;18.40;99.90;;;;;;5124540;28;20252;-41
2021/09/12 08:24:21;;;;;;;8.40;4.97;;;18.40;99.90;;;;;;5119973;27;20210;-43
2021/09/12 08:26:47;;;;;;;6.27;4.70;;;18.50;99.90;;;;;;5120837;27;20211;-40
2021/09/12 08:29:13;;;;;;;5.67;4.57;;;18.50;99.90;;;;;;5117059;27;20847;-41
2021/09/12 08:31:39;;;;;;;9.67;4.40;;;18.60;99.90;;;;;;5122499;27;20202;-43
2021/09/12 08:34:05;;;;;;;6.33;4.67;;;18.60;99.90;;;;;;5114827;27;20566;-40
2021/09/12 08:36:30;;;;;;;7.90;4.10;;;18.60;99.90;;;;;;5128644;27;20211;-42
2021/09/12 08:38:56;;;;;;;6.80;3.97;;;18.70;99.90;;;;;;5128890;27;20274;-40
2021/09/12 08:41:23;;;;;;;4.90;3.90;;;18.70;99.90;;;;;;5124424;27;20253;-43
2021/09/12 08:43:49;;;;;;;4.50;3.47;;;18.70;99.90;;;;;;5124410;27;20274;-40
2021/09/12 08:46:16;;;;;;;7.23;3.57;;;18.70;99.90;;;;;;5124690;27;20421;-42
2021/09/12 08:48:43;;;;;;;6.37;2.70;;;18.70;99.90;;;;;;5128277;27;20722;-41
2021/09/12 08:51:09;;;;;;;4.47;3.00;;;18.80;99.90;;;;;;5123507;27;20521;-40
2021/09/12 08:53:34;;;;;;;4.30;2.87;;;18.90;99.90;;;;;;5123233;27;20429;-39
2021/09/12 08:56:00;;;;;;;4.10;2.87;;;18.90;99.90;;;;;;5127672;27;20187;-40
2021/09/12 08:58:27;;;;;;;4.20;3.10;;;19.00;99.90;;;;;;5117238;27;20217;-39
2021/09/12 09:01:00;;;;;;;3.40;2.83;;;19.00;99.90;;;;;;5128100;27;20187;-39
2021/09/12 09:03:37;;;;;;;5.83;3.03;;;19.00;99.90;;;;;;5115241;27;20427;-41
2021/09/12 09:06:18;;;;;;;3.67;3.37;;;19.00;99.90;;;;;;5128622;27;20420;-43
2021/09/12 09:08:50;;;;;;;5.23;3.73;;;19.10;99.90;;;;;;5128545;27;20560;-40
2021/09/12 09:11:30;;;;;;;3.67;3.00;;;19.20;99.90;;;;;;5106894;27;20455;-41
2021/09/12 09:14:15;;;;;;;4.63;2.93;;;19.30;99.90;;;;;;5121978;27;20409;-39
2021/09/12 09:16:42;;;;;;;3.33;2.60;;;19.30;99.90;;;;;;5126948;27;20812;-41
2021/09/12 09:19:08;;;;;;;5.27;2.83;;;19.30;99.90;;;;;;5127928;27;20465;-43
2021/09/12 09:21:45;;;;;;;4.57;2.97;;;19.40;99.90;;;;;;5127588;27;20417;-41
2021/09/12 09:24:15;;;;;;;7.20;4.10;;;19.40;99.90;;;;;;5128372;27;20450;-43
2021/09/12 09:26:46;;;;;;;6.70;3.50;;;19.50;99.90;;;;;;5123108;27;20974;-41
2021/09/12 09:29:13;;;;;;;4.47;2.90;;;19.50;99.90;;;;;;5120661;27;20425;-40
2021/09/12 09:31:41;;;;;;;2.90;2.30;;;19.60;99.90;;;;;;5122404;27;20472;-41
2021/09/12 09:34:20;;;;;;;3.43;2.13;;;19.60;99.90;;;;;;5121618;27;20627;-40
2021/09/12 09:36:50;;;;;;;3.53;2.70;;;19.70;99.90;;;;;;5126289;27;20504;-40
2021/09/12 09:39:34;;;;;;;7.93;2.70;;;19.60;99.90;;;;;;5124551;27;20769;-42
2021/09/12 09:41:59;;;;;;;5.20;2.50;;;19.60;99.90;;;;;;5118458;27;20437;-41
2021/09/12 09:44:26;;;;;;;3.13;2.67;;;19.60;99.90;;;;;;5118057;27;20578;-42
2021/09/12 09:46:53;;;;;;;4.90;2.90;;;19.60;99.90;;;;;;5127105;27;20282;-43
2021/09/12 09:49:22;;;;;;;5.07;3.10;;;19.70;99.90;;;;;;5127582;27;20483;-43
2021/09/12 09:51:51;;;;;;;4.10;2.70;;;19.80;99.90;;;;;;5119005;27;20452;-40
2021/09/12 09:54:17;;;;;;;3.50;2.70;;;19.80;99.90;;;;;;5102434;27;20962;-41
2021/09/12 09:56:45;;;;;;;3.70;2.37;;;19.80;99.90;;;;;;5107389;27;20440;-41
2021/09/12 09:59:15;;;;;;;4.30;3.17;;;19.80;99.90;;;;;;5120521;27;20489;-40
2021/09/12 10:01:42;;;;;;;2.77;2.53;;;19.90;99.90;;;;;;5120878;27;20437;-41
2021/09/12 10:04:08;;;;;;;3.27;2.93;;;19.80;99.90;;;;;;5088742;28;20433;-44
2021/09/12 10:06:35;;;;;;;3.20;2.80;;;19.90;99.90;;;;;;5119157;27;20424;-41
2021/09/12 10:09:01;;;;;;;3.83;2.77;;;20.00;99.90;;;;;;5113887;27;20500;-41
2021/09/12 10:11:27;;;;;;;3.60;3.17;;;20.00;99.90;;;;;;5106276;28;21132;-40
2021/09/12 10:13:53;;;;;;;4.33;3.40;;;20.10;99.90;;;;;;5111430;27;20297;-42
2021/09/12 10:16:20;;;;;;;4.50;3.20;;;20.10;99.90;;;;;;5124899;27;20187;-43
2021/09/12 10:18:46;;;;;;;4.23;2.93;;;20.20;99.90;;;;;;5108728;27;20775;-42
2021/09/12 10:21:27;;;;;;;4.67;3.10;;;20.10;99.90;;;;;;5123198;27;20761;-41
2021/09/12 10:24:07;;;;;;;3.90;2.97;;;20.10;99.90;;;;;;5121320;27;20421;-40
2021/09/12 10:26:37;;;;;;;4.90;3.40;;;20.10;99.90;;;;;;5122067;27;20488;-43
2021/09/12 10:29:03;;;;;;;3.60;3.07;;;20.20;99.90;;;;;;5118254;27;20436;-45
2021/09/12 10:31:32;;;;;;;7.77;3.57;;;20.20;99.90;;;;;;5124912;27;20459;-45
2021/09/12 10:34:13;;;;;;;5.60;3.57;;;20.20;99.90;;;;;;5113173;27;20579;-40
2021/09/12 10:36:43;;;;;;;3.80;3.07;;;20.30;99.90;;;;;;5126201;27;20421;-41
2021/09/12 10:39:35;;;;;;;3.40;2.93;;;20.30;99.90;;;;;;5116856;27;20501;-41
2021/09/12 10:42:13;;;;;;;5.03;2.83;;;20.30;99.90;;;;;;5115225;27;20425;-39
2021/09/12 10:44:39;;;;;;;5.23;3.20;;;20.40;99.90;;;;;;5119351;27;20444;-44
2021/09/12 10:47:10;;;;;;;4.43;3.23;;;20.40;99.90;;;;;;5119600;27;20481;-44
2021/09/12 10:49:36;;;;;;;5.13;3.43;;;20.50;99.90;;;;;;5126403;27;20966;-41
2021/09/12 10:52:02;;;;;;;3.80;3.40;;;20.50;99.90;;;;;;5126108;27;20467;-41
2021/09/12 10:54:28;;;;;;;4.07;2.87;;;20.40;99.90;;;;;;5126221;27;20617;-43
2021/09/12 10:57:08;;;;;;;5.10;3.13;;;20.40;99.90;;;;;;5107935;27;20543;-43
2021/09/12 10:59:34;;;;;;;5.63;3.10;;;20.50;99.90;;;;;;5116875;27;20613;-42
2021/09/12 11:02:00;;;;;;;3.83;3.03;;;20.50;99.90;;;;;;5121632;27;20446;-43
2021/09/12 11:04:31;;;;;;;5.43;3.80;;;20.60;99.90;;;;;;5126100;27;20918;-40
2021/09/12 11:07:03;;;;;;;5.90;3.97;;;20.60;99.90;;;;;;5125833;27;20854;-42
2021/09/12 11:09:29;;;;;;;3.30;3.00;;;20.50;99.90;;;;;;5126127;27;20456;-43
2021/09/12 11:12:04;;;;;;;5.37;3.20;;;20.60;99.90;;;;;;5126018;27;20547;-43
2021/09/12 11:14:31;;;;;;;4.57;3.17;;;20.70;99.90;;;;;;5117249;27;20485;-40
2021/09/12 11:17:09;;;;;;;6.00;3.60;;;20.70;99.90;;;;;;5117265;27;20417;-43
2021/09/12 11:19:36;;;;;;;4.77;3.37;;;20.70;99.90;;;;;;5112658;27;20420;-40
2021/09/12 11:22:03;;;;;;;4.37;2.97;;;20.80;99.90;;;;;;5126110;27;20451;-45
2021/09/12 11:24:30;;;;;;;4.03;3.00;;;20.80;99.90;;;;;;5125930;27;20777;-43
2021/09/12 11:27:06;;;;;;;3.40;3.10;;;20.90;99.90;;;;;;5125383;27;20598;-43
2021/09/12 11:29:39;;;;;;;5.50;3.50;;;21.00;99.90;;;;;;5118709;27;20484;-39
2021/09/12 11:32:07;;;;;;;4.23;3.10;;;21.00;99.90;;;;;;5125124;27;20461;-42
2021/09/12 11:34:35;;;;;;;5.43;3.60;;;21.00;99.90;;;;;;5125704;27;20425;-41
2021/09/12 11:37:24;;;;;;;4.07;3.40;;;21.00;99.90;;;;;;5100937;28;20420;-44
2021/09/12 11:39:55;;;;;;;3.40;3.10;;;21.00;99.90;;;;;;5126993;28;20417;-40
2021/09/12 11:42:21;;;;;;;3.30;3.00;;;21.00;99.90;;;;;;5104882;28;20440;-40
2021/09/12 11:44:51;;;;;;;6.03;3.40;;;21.00;99.90;;;;;;5111967;28;20429;-43
2021/09/12 11:47:22;;;;;;;3.30;3.07;;;20.90;99.90;;;;;;5122377;28;20981;-40
2021/09/12 11:50:03;;;;;;;5.57;3.73;;;20.90;99.90;;;;;;5120541;28;20440;-44
2021/09/12 11:52:42;;;;;;;4.90;3.33;;;20.90;99.90;;;;;;5119322;28;20504;-41
2021/09/12 11:55:27;;;;;;;4.93;3.90;;;20.90;99.90;;;;;;5119988;28;20435;-42
2021/09/12 11:57:59;;;;;;;3.23;2.90;;;20.80;99.90;;;;;;5119748;28;20423;-40
2021/09/12 12:00:26;;;;;;;5.00;3.07;;;20.80;99.90;;;;;;5116631;27;20480;-41
2021/09/12 12:02:53;;;;;;;3.43;3.13;;;20.80;99.90;;;;;;5125179;27;20923;-41
2021/09/12 12:05:19;;;;;;;6.03;3.43;;;20.80;99.90;;;;;;5129737;27;20574;-41
2021/09/12 12:07:45;;;;;;;6.13;3.13;;;20.90;99.90;;;;;;5128994;27;20463;-41
2021/09/12 12:10:38;;;;;;;5.47;3.20;;;20.80;99.90;;;;;;5129088;27;20416;-40
2021/09/12 12:13:04;;;;;;;3.27;2.97;;;20.80;99.90;;;;;;5120003;27;20279;-41
2021/09/12 12:15:50;;;;;;;5.93;3.63;;;20.80;99.90;;;;;;5128524;27;20417;-43
2021/09/12 12:18:22;;;;;;;3.30;2.93;;;20.90;99.90;;;;;;5124047;27;20441;-40
2021/09/12 12:20:47;;;;;;;4.40;3.20;;;20.90;99.90;;;;;;5123222;27;20784;-41
2021/09/12 12:23:14;;;;;;;3.70;3.00;;;21.00;99.90;;;;;;5119343;27;20424;-42
2021/09/12 12:25:41;;;;;;;3.70;3.30;;;21.00;99.90;;;;;;5119034;27;20450;-41
2021/09/12 12:28:21;;;;;;;3.93;2.67;;;21.10;99.90;;;;;;5108510;27;20413;-43
2021/09/12 12:31:14;;;;;;;4.50;3.10;;;21.10;99.90;;;;;;5122958;27;20416;-45
2021/09/12 12:33:41;;;;;;;3.43;2.60;;;21.20;99.90;;;;;;5124976;27;20443;-40
2021/09/12 12:36:16;;;;;;;3.30;2.70;;;21.10;99.90;;;;;;5128872;27;20409;-43
2021/09/12 12:38:42;;;;;;;3.23;2.40;;;21.20;99.90;;;;;;5129004;27;20423;-42